createdAt,value
2022-09-01T00:03:02.857Z,98569.60
2022-09-01T00:06:30.806Z,98574.40
2022-09-01T00:09:46.051Z,98577.00
2022-09-01T00:13:13.821Z,98579.00
2022-09-01T00:16:35.628Z,98581.40
2022-09-01T00:19:57.246Z,98575.80
2022-09-01T00:23:18.626Z,98576.60
2022-09-01T00:26:40.086Z,98569.60
2022-09-01T00:30:09.734Z,98570.00
2022-09-01T00:33:37.712Z,98575.20
2022-09-01T00:37:13.677Z,98572.20
2022-09-01T00:40:35.659Z,98570.80
2022-09-01T00:44:06.736Z,98563.20
2022-09-01T00:47:21.313Z,98563.60
2022-09-01T00:50:44.358Z,98560.20
2022-09-01T00:54:13.757Z,98558.80
2022-09-01T00:57:29.710Z,98565.80
2022-09-01T01:00:59.804Z,98569.60
2022-09-01T01:04:16.082Z,98573.00
2022-09-01T01:07:47.696Z,98583.40
2022-09-01T01:11:06.535Z,98583.60
2022-09-01T01:14:35.863Z,98588.60
2022-09-01T01:18:10.777Z,98588.20
2022-09-01T01:22:14.889Z,98580.60
2022-09-01T01:25:53.806Z,98589.40
2022-09-01T01:29:23.864Z,98588.20
2022-09-01T01:32:47.918Z,98578.60
2022-09-01T01:36:20.242Z,98570.40
2022-09-01T01:39:54.875Z,98571.40
2022-09-01T01:43:23.287Z,98566.20
2022-09-01T01:47:01.987Z,98558.80
2022-09-01T01:50:41.842Z,98559.00
2022-09-01T01:54:17.966Z,98556.00
2022-09-01T01:57:57.359Z,98553.40
2022-09-01T02:01:26.921Z,98555.00
2022-09-01T02:05:02.874Z,98545.60
2022-09-01T02:08:40.989Z,98543.60
2022-09-01T02:12:16.004Z,98544.80
2022-09-01T02:15:51.098Z,98553.20
2022-09-01T02:19:27.905Z,98553.80
2022-09-01T02:23:04.049Z,98556.80
2022-09-01T02:26:38.909Z,98548.80
2022-09-01T02:30:07.068Z,98557.80
2022-09-01T02:33:42.953Z,98556.40
2022-09-01T02:37:18.023Z,98556.80
2022-09-01T02:40:53.037Z,98552.20
2022-09-01T02:44:22.345Z,98542.60
2022-09-01T02:47:52.003Z,98528.60
2022-09-01T02:51:16.373Z,98522.20
2022-09-01T02:54:40.038Z,98526.00
2022-09-01T02:58:02.731Z,98527.80
2022-09-01T03:01:29.215Z,98524.60
2022-09-01T03:04:50.706Z,98519.40
2022-09-01T03:08:23.049Z,98512.60
2022-09-01T03:12:00.117Z,98511.80
2022-09-01T03:15:21.933Z,98511.80
2022-09-01T03:18:59.251Z,98511.20
2022-09-01T03:22:36.087Z,98506.40
2022-09-01T03:26:12.167Z,98507.60
2022-09-01T03:29:47.072Z,98507.00
2022-09-01T03:33:18.181Z,98513.80
2022-09-01T03:36:50.534Z,98517.60
2022-09-01T03:40:15.262Z,98519.40
2022-09-01T03:43:37.399Z,98525.40
2022-09-01T03:47:08.228Z,98523.00
2022-09-01T03:50:45.197Z,98515.20
2022-09-01T03:54:20.483Z,98512.20
2022-09-01T03:57:55.207Z,98510.80
2022-09-01T04:01:24.425Z,98510.20
2022-09-01T04:04:45.482Z,98505.00
2022-09-01T04:08:23.230Z,98504.80
2022-09-01T04:11:58.192Z,98509.00
2022-09-01T04:15:34.286Z,98504.60
2022-09-01T04:19:02.513Z,98505.40
2022-09-01T04:22:23.626Z,98506.80
2022-09-01T04:25:46.450Z,98508.00
2022-09-01T04:29:09.325Z,98510.40
2022-09-01T04:32:31.467Z,98509.00
2022-09-01T04:35:54.919Z,98495.80
2022-09-01T04:39:24.244Z,98493.60
2022-09-01T04:42:59.282Z,98485.00
2022-09-01T04:46:36.391Z,98484.80
2022-09-01T04:50:46.993Z,98488.40
2022-09-01T04:54:24.288Z,98509.20
2022-09-01T04:58:01.304Z,98515.20
2022-09-01T05:01:49.402Z,98518.80
2022-09-01T05:05:27.370Z,98509.20
2022-09-01T05:09:03.425Z,98508.40
2022-09-01T05:12:38.492Z,98501.60
2022-09-01T05:16:26.381Z,98495.00
2022-09-01T05:19:57.346Z,98491.80
2022-09-01T05:23:20.323Z,98496.20
2022-09-01T05:26:47.534Z,98495.80
2022-09-01T05:30:09.390Z,98496.00
2022-09-01T05:33:31.432Z,98496.20
2022-09-01T05:36:56.239Z,98508.40
2022-09-01T05:40:23.125Z,98507.60
2022-09-01T05:44:01.065Z,98515.60
2022-09-01T05:47:35.620Z,98521.00
2022-09-01T05:51:17.669Z,98520.00
2022-09-01T05:55:03.492Z,98517.00
2022-09-01T06:02:35.570Z,98518.00
2022-09-01T06:06:09.493Z,98516.40
2022-09-01T06:09:31.287Z,98515.20
2022-09-01T06:12:53.991Z,98517.00
2022-09-01T06:16:30.576Z,98525.00
2022-09-01T06:19:59.520Z,98526.80
2022-09-01T06:23:22.889Z,98531.80
2022-09-01T06:26:46.533Z,98537.20
2022-09-01T06:30:27.686Z,98541.40
2022-09-01T06:33:57.538Z,98544.60
2022-09-01T06:37:32.581Z,98543.20
2022-09-01T06:41:19.570Z,98539.60
2022-09-01T06:44:54.634Z,98542.60
2022-09-01T06:48:17.961Z,98547.60
2022-09-01T06:51:45.574Z,98551.80
2022-09-01T06:55:21.666Z,98549.60
2022-09-01T06:58:58.579Z,98555.60
2022-09-01T07:02:34.648Z,98560.60
2022-09-01T07:06:03.643Z,98559.60
2022-09-01T07:09:38.975Z,98566.00
2022-09-01T07:13:05.684Z,98569.20
2022-09-01T07:16:41.881Z,98571.60
2022-09-01T07:20:27.939Z,98578.80
2022-09-01T07:24:08.771Z,98583.80
2022-09-01T07:27:36.024Z,98579.60
2022-09-01T07:34:46.297Z,98577.80
2022-09-01T07:45:35.780Z,98572.60
2022-09-01T07:52:38.784Z,98570.00
2022-09-01T07:56:02.187Z,98571.00
2022-09-01T07:59:22.740Z,98576.20
2022-09-01T08:02:46.680Z,98576.80
2022-09-01T08:06:13.827Z,98568.60
2022-09-01T08:09:38.230Z,98572.80
2022-09-01T08:13:05.733Z,98573.40
2022-09-01T08:16:51.894Z,98567.80
2022-09-01T08:20:21.778Z,98576.40
2022-09-01T08:23:44.238Z,98574.60
2022-09-01T08:27:06.779Z,98575.20
2022-09-01T08:30:28.515Z,98572.20
2022-09-01T08:33:53.811Z,98576.00
2022-09-01T08:37:22.813Z,98579.80
2022-09-01T08:41:04.864Z,98583.40
2022-09-01T08:44:54.846Z,98583.40
2022-09-01T08:52:35.866Z,98590.80
2022-09-01T08:56:09.875Z,98586.80
2022-09-01T08:59:38.265Z,98585.40
2022-09-01T09:03:40.446Z,98580.40
2022-09-01T09:07:27.033Z,98580.40
2022-09-01T09:11:14.909Z,98575.40
2022-09-01T09:15:12.138Z,98580.60
2022-09-01T09:18:55.641Z,98579.00
2022-09-01T09:22:27.032Z,98576.60
2022-09-01T09:26:02.320Z,98569.00
2022-09-01T09:29:39.094Z,98566.20
2022-09-01T09:37:31.045Z,98564.60
2022-09-01T09:41:20.309Z,98559.20
2022-09-01T09:45:06.072Z,98560.20
2022-09-01T09:48:50.687Z,98553.60
2022-09-01T09:52:31.190Z,98553.20
2022-09-01T09:56:36.118Z,98550.80
2022-09-01T10:00:11.374Z,98538.00
2022-09-01T10:03:57.190Z,98536.80
2022-09-01T10:07:49.089Z,98540.20
2022-09-01T10:11:12.233Z,98535.20
2022-09-01T10:14:52.364Z,98533.80
2022-09-01T10:18:38.385Z,98534.80
2022-09-01T10:22:15.190Z,98534.80
2022-09-01T10:25:39.567Z,98531.60
2022-09-01T10:29:21.093Z,98533.60
2022-09-01T10:32:50.753Z,98528.60
2022-09-01T10:36:24.480Z,98526.00
2022-09-01T10:40:49.174Z,98527.20
2022-09-01T10:44:31.273Z,98524.00
2022-09-01T10:47:53.623Z,98530.20
2022-09-01T10:51:56.293Z,98527.20
2022-09-01T10:55:24.687Z,98526.80
2022-09-01T11:02:47.369Z,98516.40
2022-09-01T11:07:11.690Z,98511.60
2022-09-01T11:11:06.424Z,98512.20
2022-09-01T11:14:43.203Z,98511.00
2022-09-01T11:18:22.454Z,98510.40
2022-09-01T11:22:00.271Z,98516.00
2022-09-01T11:26:19.033Z,98514.40
2022-09-01T11:30:04.620Z,98516.80
2022-09-01T11:33:54.440Z,98506.80
2022-09-01T11:37:38.330Z,98503.60
2022-09-01T11:41:06.630Z,98503.60
2022-09-01T11:44:35.358Z,98496.80
2022-09-01T11:48:00.286Z,98500.00
2022-09-01T11:51:15.857Z,98506.40
2022-09-01T11:54:45.464Z,98502.20
2022-09-01T11:58:07.606Z,98499.40
2022-09-01T12:01:45.410Z,98501.60
2022-09-01T12:05:01.749Z,98500.40
2022-09-01T12:08:37.318Z,98494.00
2022-09-01T12:11:59.402Z,98488.60
2022-09-01T12:15:35.235Z,98491.00
2022-09-01T12:19:00.369Z,98489.40
2022-09-01T12:22:27.676Z,98490.00
2022-09-01T12:25:49.572Z,98487.40
2022-09-01T12:29:03.997Z,98490.80
2022-09-01T12:32:32.688Z,98488.20
2022-09-01T12:35:47.352Z,98489.60
2022-09-01T12:39:39.574Z,98491.60
2022-09-01T12:43:00.953Z,98496.00
2022-09-01T12:46:53.406Z,98486.60
2022-09-01T12:50:38.496Z,98490.80
2022-09-01T12:54:09.413Z,98487.60
2022-09-01T12:57:37.915Z,98485.80
2022-09-01T13:01:09.156Z,98483.60
2022-09-01T13:04:48.511Z,98487.40
2022-09-01T13:08:25.631Z,98491.80
2022-09-01T13:12:08.662Z,98485.20
2022-09-01T13:15:31.186Z,98482.00
2022-09-01T13:19:21.860Z,98485.60
2022-09-01T13:22:34.798Z,98484.40
2022-09-01T13:26:02.495Z,98490.40
2022-09-01T13:29:17.650Z,98488.00
2022-09-01T13:33:18.830Z,98483.40
2022-09-01T13:40:09.337Z,98490.20
2022-09-01T13:51:18.447Z,98486.40
2022-09-01T13:54:47.151Z,98482.40
2022-09-01T13:58:08.888Z,98481.40
2022-09-01T14:01:23.396Z,98489.40
2022-09-01T14:04:51.660Z,98491.40
2022-09-01T14:08:29.639Z,98496.60
2022-09-01T14:12:00.843Z,98494.20
2022-09-01T14:15:23.726Z,98493.00
2022-09-01T14:18:48.080Z,98495.80
2022-09-01T14:22:12.793Z,98496.80
2022-09-01T14:25:41.838Z,98494.20
2022-09-01T14:29:16.682Z,98492.20
2022-09-01T14:32:39.429Z,98492.20
2022-09-01T14:36:14.498Z,98489.20
2022-09-01T14:39:49.683Z,98489.20
2022-09-01T14:43:29.730Z,98491.60
2022-09-01T14:46:51.353Z,98489.80
2022-09-01T14:50:19.964Z,98493.60
2022-09-01T14:53:53.753Z,98501.60
2022-09-01T14:57:36.918Z,98500.80
2022-09-01T15:01:32.659Z,98505.20
2022-09-01T15:04:52.344Z,98502.00
2022-09-01T15:08:19.984Z,98506.80
2022-09-01T15:11:44.174Z,98500.20
2022-09-01T15:15:08.060Z,98501.20
2022-09-01T15:18:22.398Z,98503.60
2022-09-01T15:21:43.816Z,98506.20
2022-09-01T15:25:05.019Z,98503.40
2022-09-01T15:28:20.710Z,98502.40
2022-09-01T15:31:49.027Z,98500.00
2022-09-01T15:35:03.399Z,98503.00
2022-09-01T15:38:37.848Z,98508.20
2022-09-01T15:42:08.978Z,98508.00
2022-09-01T15:45:30.312Z,98510.60
2022-09-01T15:48:52.493Z,98519.80
2022-09-01T15:52:13.957Z,98513.60
2022-09-01T15:55:37.903Z,98518.40
2022-09-01T15:59:01.472Z,98518.80
2022-09-01T16:02:32.967Z,98512.00
2022-09-01T16:05:54.055Z,98514.60
2022-09-01T16:09:29.953Z,98519.20
2022-09-01T16:13:04.914Z,98524.80
2022-09-01T16:16:56.550Z,98520.20
2022-09-01T16:20:23.495Z,98521.40
2022-09-01T16:24:05.156Z,98526.00
2022-09-01T16:27:31.051Z,98530.20
2022-09-01T16:30:56.293Z,98529.00
2022-09-01T16:34:28.340Z,98527.80
2022-09-01T16:38:10.416Z,98526.60
2022-09-01T16:41:59.326Z,98521.40
2022-09-01T16:45:24.354Z,98526.00
2022-09-01T16:49:03.130Z,98525.80
2022-09-01T16:52:34.989Z,98522.40
2022-09-01T16:56:14.499Z,98531.40
2022-09-01T17:03:21.327Z,98543.00
2022-09-01T17:07:15.323Z,98547.20
2022-09-01T17:11:04.366Z,98544.60
2022-09-01T17:14:49.164Z,98539.60
2022-09-01T17:18:22.506Z,98539.40
2022-09-01T17:21:41.904Z,98539.00
2022-09-01T17:24:56.103Z,98535.40
2022-09-01T17:28:09.916Z,98541.80
2022-09-01T17:31:42.132Z,98547.20
2022-09-01T17:35:03.847Z,98541.80
2022-09-01T17:38:28.716Z,98541.40
2022-09-01T17:41:43.323Z,98543.80
2022-09-01T17:44:56.553Z,98546.80
2022-09-01T17:48:15.301Z,98546.80
2022-09-01T17:51:37.237Z,98548.40
2022-09-01T17:54:52.555Z,98548.20
2022-09-01T17:58:08.171Z,98556.60
2022-09-01T18:01:25.749Z,98563.80
2022-09-01T18:04:57.508Z,98563.80
2022-09-01T18:08:30.078Z,98573.40
2022-09-01T18:11:48.944Z,98575.40
2022-09-01T18:15:08.786Z,98580.40
2022-09-01T18:18:36.967Z,98592.20
2022-09-01T18:21:54.485Z,98591.60
2022-09-01T18:25:07.837Z,98594.00
2022-09-01T18:28:17.162Z,98593.00
2022-09-01T18:31:52.762Z,98598.80
2022-09-01T18:35:27.094Z,98600.00
2022-09-01T18:38:50.191Z,98601.80
2022-09-01T18:42:15.986Z,98606.20
2022-09-01T18:45:38.758Z,98597.80
2022-09-01T18:49:02.138Z,98598.20
2022-09-01T18:52:32.471Z,98603.80
2022-09-01T18:55:55.026Z,98603.60
2022-09-01T18:59:24.366Z,98603.00
2022-09-01T19:02:52.514Z,98607.60
2022-09-01T19:06:38.645Z,98604.80
2022-09-01T19:09:59.079Z,98603.00
2022-09-01T19:13:19.013Z,98611.60
2022-09-01T19:16:44.470Z,98606.80
2022-09-01T19:20:00.315Z,98604.80
2022-09-01T19:23:17.894Z,98604.80
2022-09-01T19:26:32.405Z,98604.40
2022-09-01T19:29:52.533Z,98603.40
2022-09-01T19:33:04.158Z,98610.00
2022-09-01T19:36:20.270Z,98612.60
2022-09-01T19:39:33.942Z,98613.00
2022-09-01T19:42:48.926Z,98614.60
2022-09-01T19:46:12.832Z,98617.60
2022-09-01T19:49:39.075Z,98615.60
2022-09-01T19:52:57.017Z,98614.80
2022-09-01T19:56:15.429Z,98619.60
2022-09-01T19:59:31.798Z,98619.40
2022-09-01T20:02:47.950Z,98619.00
2022-09-01T20:06:02.973Z,98622.40
2022-09-01T20:09:19.154Z,98624.40
2022-09-01T20:12:40.159Z,98626.40
2022-09-01T20:15:55.697Z,98629.40
2022-09-01T20:19:12.678Z,98634.20
2022-09-01T20:22:40.466Z,98639.00
2022-09-01T20:25:55.585Z,98649.40
2022-09-01T20:29:13.965Z,98648.20
2022-09-01T20:32:32.139Z,98652.20
2022-09-01T20:35:49.579Z,98652.00
2022-09-01T20:39:21.386Z,98646.20
2022-09-01T20:42:38.769Z,98649.20
2022-09-01T20:45:47.015Z,98653.00
2022-09-01T20:48:55.165Z,98649.00
2022-09-01T20:52:13.249Z,98653.60
2022-09-01T20:55:29.694Z,98656.00
2022-09-01T20:58:45.964Z,98655.80
2022-09-01T21:02:06.054Z,98657.60
2022-09-01T21:05:41.239Z,98652.00
2022-09-01T21:08:59.479Z,98657.00
2022-09-01T21:12:18.976Z,98659.80
2022-09-01T21:15:43.467Z,98661.40
2022-09-01T21:19:05.118Z,98666.80
2022-09-01T21:22:21.925Z,98662.60
2022-09-01T21:25:30.965Z,98663.40
2022-09-01T21:28:39.538Z,98671.80
2022-09-01T21:31:48.660Z,98672.40
2022-09-01T21:34:57.755Z,98673.20
2022-09-01T21:38:05.854Z,98666.60
2022-09-01T21:41:14.970Z,98669.80
2022-09-01T21:44:23.411Z,98671.40
2022-09-01T21:47:33.961Z,98668.40
2022-09-01T21:50:42.421Z,98666.40
2022-09-01T21:53:50.534Z,98668.80
2022-09-01T21:56:58.495Z,98667.00
2022-09-01T22:00:10.059Z,98665.80
2022-09-01T22:03:20.246Z,98659.60
2022-09-01T22:06:29.951Z,98652.20
2022-09-01T22:09:37.718Z,98651.00
2022-09-01T22:12:48.188Z,98649.20
2022-09-01T22:15:58.326Z,98648.00
2022-09-01T22:19:06.902Z,98648.00
2022-09-01T22:22:16.560Z,98644.60
2022-09-01T22:25:25.968Z,98637.00
2022-09-01T22:28:33.950Z,98639.60
2022-09-01T22:31:43.441Z,98631.40
2022-09-01T22:34:51.375Z,98632.40
2022-09-01T22:37:59.556Z,98625.40
2022-09-01T22:41:07.532Z,98625.60
2022-09-01T22:44:16.252Z,98621.00
2022-09-01T22:47:24.542Z,98621.20
2022-09-01T22:50:32.520Z,98624.60
2022-09-01T22:53:42.329Z,98620.40
2022-09-01T22:56:50.011Z,98620.00
2022-09-01T22:59:58.206Z,98621.60
2022-09-01T23:03:07.553Z,98620.20
2022-09-01T23:06:25.176Z,98616.80
2022-09-01T23:09:36.996Z,98615.40
2022-09-01T23:12:44.795Z,98615.40
2022-09-01T23:15:52.712Z,98617.40
2022-09-01T23:19:01.419Z,98610.80
2022-09-01T23:22:09.522Z,98610.20
2022-09-01T23:25:19.376Z,98609.80
2022-09-01T23:28:28.572Z,98611.80
2022-09-01T23:31:39.635Z,98605.80
2022-09-01T23:34:48.022Z,98607.00
2022-09-01T23:37:56.186Z,98608.60
2022-09-01T23:41:08.551Z,98608.00
2022-09-01T23:44:17.037Z,98609.40
2022-09-01T23:47:25.321Z,98608.80
2022-09-01T23:50:34.782Z,98609.00
2022-09-01T23:53:44.121Z,98606.20
2022-09-01T23:56:52.156Z,98602.80
